.
WxDataArchive / Data Records for 2013-02-18
2013-02-17 February 2013 2013-02-19

Data Records for Monday, 18 February 2013

Time	Temp	Chill	HIndex	Humid	Dewpt	 Wind 	HiWind	WindDir	Rain 	Barom 
-----	----	-----	------	-----	-----	------	------	-------	-----	----- 
00:00	20.0	20.0	20.0	72	12.5	0	1	225	0.00	30.200 
00:05	20.2	20.2	20.2	71	12.3	0	1	225	0.00	30.200 
00:10	20.2	20.2	20.2	71	12.3	0	1	225	0.00	30.200 
00:15	20.2	20.2	20.2	71	12.3	0	1	225	0.00	30.199 
00:20	20.3	20.3	20.3	71	12.4	0	0	---	0.00	30.199 
00:25	20.3	20.3	20.3	71	12.4	0	1	225	0.00	30.199 
00:30	20.2	20.2	20.2	71	12.3	0	0	---	0.00	30.201 
00:35	20.2	20.2	20.2	71	12.3	0	0	---	0.00	30.201 
00:40	20.2	20.2	20.2	71	12.3	0	0	---	0.00	30.201 
00:45	20.0	20.0	20.0	71	12.1	0	1	225	0.00	30.201 
00:50	19.9	19.9	19.9	71	12.0	0	1	225	0.00	30.201 
00:55	19.9	19.9	19.9	71	12.0	0	0	---	0.00	30.201 
01:00	19.7	19.7	19.7	71	11.8	0	0	---	0.00	30.200 
01:05	19.7	19.7	19.7	71	11.8	0	1	225	0.00	30.200 
01:10	19.7	19.7	19.7	71	11.8	0	1	225	0.00	30.200 
01:15	19.7	19.7	19.7	71	11.8	0	1	225	0.00	30.196 
01:20	19.5	19.5	19.5	72	12.0	0	0	---	0.00	30.196 
01:25	19.5	19.5	19.5	72	12.0	0	0	---	0.00	30.196 
01:30	19.4	19.4	19.4	72	11.9	0	0	---	0.00	30.195 
01:35	19.4	19.4	19.4	72	11.9	0	1	225	0.00	30.195 
01:40	19.2	19.2	19.2	72	11.7	0	1	225	0.00	30.195 
01:45	19.4	19.4	19.4	73	12.2	0	1	225	0.00	30.185 
01:50	19.4	19.4	19.4	73	12.2	0	1	225	0.00	30.185 
01:55	19.5	19.5	19.5	72	12.0	0	1	225	0.00	30.185 
02:00	19.5	19.5	19.5	72	12.0	0	0	---	0.00	30.184 
02:05	19.5	19.5	19.5	72	12.0	0	1	225	0.00	30.184 
02:10	19.5	19.5	19.5	72	12.0	0	1	225	0.00	30.184 
02:15	19.7	19.7	19.7	71	11.8	0	1	225	0.00	30.184 
02:20	19.7	19.7	19.7	71	11.8	0	1	225	0.00	30.184 
02:25	19.9	19.9	19.9	71	12.0	0	1	225	0.00	30.184 
02:30	19.9	19.9	19.9	70	11.7	0	1	225	0.00	30.182 
02:35	19.9	19.9	19.9	70	11.7	0	1	225	0.00	30.182 
02:40	19.9	19.9	19.9	70	11.7	0	1	225	0.00	30.182 
02:45	19.9	19.9	19.9	70	11.7	0	1	225	0.00	30.173 
02:50	19.9	19.9	19.9	70	11.7	0	1	225	0.00	30.173 
02:55	19.9	19.9	19.9	70	11.7	0	1	225	0.00	30.173 
03:00	19.9	19.9	19.9	70	11.7	0	1	225	0.00	30.167 
03:05	20.0	20.0	20.0	70	11.8	0	1	225	0.00	30.167 
03:10	20.0	20.0	20.0	69	11.5	0	1	225	0.00	30.167 
03:15	20.0	20.0	20.0	69	11.5	0	1	225	0.00	30.162 
03:20	20.0	20.0	20.0	69	11.5	0	1	225	0.00	30.162 
03:25	20.0	20.0	20.0	69	11.5	0	1	225	0.00	30.162 
03:30	20.2	20.2	20.2	69	11.7	0	2	225	0.00	30.150 
03:35	20.3	20.3	20.3	69	11.8	0	2	225	0.00	30.150 
03:40	20.3	20.3	20.3	68	11.5	0	1	225	0.00	30.150 
03:45	20.5	20.5	20.5	68	11.6	0	1	225	0.00	30.146 
03:50	20.5	20.5	20.5	68	11.6	0	1	225	0.00	30.146 
03:55	20.3	20.3	20.3	68	11.5	0	1	225	0.00	30.146 
04:00	20.3	20.3	20.3	68	11.5	0	1	225	0.00	30.136 
04:05	20.3	20.3	20.3	68	11.5	0	1	225	0.00	30.136 
04:10	20.5	20.5	20.5	68	11.6	0	1	225	0.00	30.136 
04:15	20.5	20.5	20.5	68	11.6	0	1	225	0.00	30.134 
04:20	20.5	20.5	20.5	68	11.6	0	1	225	0.00	30.134 
04:25	20.5	20.5	20.5	68	11.6	0	1	225	0.00	30.134 
04:30	20.6	20.6	20.6	68	11.7	0	2	225	0.00	30.125 
04:35	20.8	20.8	20.8	68	11.9	0	2	202	0.00	30.125 
04:40	21.0	21.0	21.0	67	11.8	0	2	202	0.00	30.125 
04:45	21.1	21.1	21.1	67	11.9	0	2	135	0.00	30.118 
04:50	21.3	21.3	21.3	66	11.7	0	3	90	0.00	30.118 
04:55	21.4	21.4	21.4	66	11.8	1	4	90	0.00	30.118 
05:00	21.4	21.4	21.4	65	11.5	0	2	90	0.00	30.118 
05:05	21.6	21.6	21.6	65	11.7	0	2	90	0.00	30.118 
05:10	21.6	21.6	21.6	65	11.7	1	3	90	0.00	30.118 
05:15	21.6	21.6	21.6	65	11.7	1	3	112	0.00	30.109 
05:20	21.8	21.8	21.8	65	11.9	0	3	90	0.00	30.109 
05:25	21.8	21.8	21.8	64	11.5	1	3	90	0.00	30.109 
05:30	21.8	21.8	21.8	65	11.9	0	2	90	0.00	30.104 
05:35	21.8	21.8	21.8	64	11.5	1	3	90	0.00	30.104 
05:40	21.8	21.8	21.8	65	11.9	0	1	90	0.00	30.104 
05:45	21.8	21.8	21.8	65	11.9	1	3	90	0.00	30.098 
05:50	21.8	21.8	21.8	65	11.9	1	4	90	0.00	30.098 
05:55	21.8	21.8	21.8	65	11.9	0	3	112	0.00	30.098 
06:00	21.8	21.8	21.8	65	11.9	1	3	112	0.00	30.090 
06:05	21.8	21.8	21.8	65	11.9	0	2	112	0.00	30.090 
06:10	21.8	21.8	21.8	65	11.9	0	3	112	0.00	30.090 
06:15	21.8	21.8	21.8	65	11.9	0	2	112	0.00	30.085 
06:20	21.8	21.8	21.8	65	11.9	1	3	112	0.00	30.085 
06:25	21.9	21.9	21.9	65	12.0	1	3	112	0.00	30.085 
06:30	21.9	21.9	21.9	65	12.0	0	2	135	0.00	30.072 
06:35	21.9	21.9	21.9	65	12.0	1	3	22	0.00	30.072 
06:40	22.1	22.1	22.1	65	12.2	1	4	112	0.00	30.072 
06:45	22.2	22.2	22.2	65	12.3	1	3	112	0.00	30.061 
06:50	22.2	22.2	22.2	65	12.3	1	3	112	0.00	30.061 
06:55	22.2	22.2	22.2	65	12.3	0	2	112	0.00	30.061 
07:00	22.4	22.4	22.4	64	12.1	1	5	90	0.00	30.054 
07:05	22.4	22.4	22.4	65	12.4	1	3	90	0.00	30.054 
07:10	22.5	22.5	22.5	65	12.5	1	3	68	0.00	30.054 
07:15	22.5	22.5	22.5	65	12.5	0	2	68	0.00	30.050 
07:20	22.5	22.5	22.5	65	12.5	0	3	68	0.00	30.050 
07:25	22.5	22.5	22.5	65	12.5	0	2	68	0.00	30.050 
07:30	22.7	22.7	22.7	65	12.7	1	4	90	0.00	30.041 
07:35	22.9	22.9	22.9	65	12.9	1	3	90	0.00	30.041 
07:40	23.2	23.2	23.2	65	13.2	1	3	68	0.00	30.041 
07:45	23.3	23.3	23.3	65	13.3	0	2	90	0.00	30.040 
07:50	23.5	23.5	23.5	65	13.5	0	2	90	0.00	30.040 
07:55	23.6	23.6	23.6	64	13.2	1	4	112	0.00	30.040 
08:00	23.9	23.9	23.9	64	13.5	1	3	68	0.00	30.031 
08:05	24.2	24.2	24.2	64	13.8	1	2	90	0.00	30.031 
08:10	24.4	24.4	24.4	63	13.6	1	6	90	0.00	30.031 
08:15	24.8	24.8	24.8	62	13.7	1	4	90	0.00	30.034 
08:20	25.4	25.4	25.4	62	14.2	1	3	90	0.00	30.034 
08:25	25.8	25.8	25.8	61	14.2	1	4	90	0.00	30.034 
08:30	26.3	26.3	26.3	60	14.3	2	5	90	0.00	30.027 
08:35	26.7	26.7	26.7	60	14.7	1	4	112	0.00	30.027 
08:40	27.0	27.0	27.0	59	14.6	1	4	112	0.00	30.027 
08:45	27.5	27.5	27.5	58	14.7	2	6	112	0.00	30.025 
08:50	27.8	27.8	27.8	58	15.0	2	6	68	0.00	30.025 
08:55	28.2	28.2	28.2	57	14.9	2	5	112	0.00	30.025 
09:00	28.7	28.7	28.7	57	15.4	2	6	112	0.00	30.016 
09:05	29.3	29.3	29.3	56	15.6	3	6	112	0.00	30.016 
09:10	29.7	29.7	29.7	54	15.1	3	7	90	0.00	30.016 
09:15	30.1	30.1	30.1	55	15.9	2	5	90	0.00	30.008 
09:20	30.6	30.6	30.6	54	16.0	2	5	90	0.00	30.008 
09:25	31.0	31.0	31.0	54	16.3	2	7	90	0.00	30.008 
09:30	31.3	31.3	31.3	54	16.6	3	5	90	0.00	30.005 
09:35	31.3	31.3	31.3	54	16.6	3	6	90	0.00	30.005 
09:40	31.5	31.5	31.5	54	16.8	2	5	90	0.00	30.005 
09:45	31.9	31.9	31.9	54	17.2	2	6	90	0.00	29.991 
09:50	32.4	32.4	32.4	53	17.2	3	7	90	0.00	29.991 
09:55	32.8	32.8	32.8	53	17.6	3	7	90	0.00	29.991 
10:00	33.2	33.2	33.2	53	17.9	2	9	90	0.00	29.982 
10:05	33.7	33.7	33.7	52	18.0	3	7	90	0.00	29.982 
10:10	34.4	34.4	34.4	52	18.6	2	10	112	0.00	29.982 
10:15	35.2	35.2	35.2	51	18.9	3	6	90	0.00	29.976 
10:20	35.6	32.2	35.6	51	19.3	4	13	90	0.00	29.976 
10:25	36.0	36.0	36.0	52	20.1	2	9	112	0.00	29.976 
10:30	36.6	36.6	36.6	51	20.2	2	10	112	0.00	29.969 
10:35	37.0	37.0	37.0	51	20.6	2	6	68	0.00	29.969 
10:40	37.0	33.9	37.0	50	20.1	4	8	90	0.00	29.969 
10:45	37.2	37.2	37.2	51	20.8	3	9	90	0.00	29.968 
10:50	37.6	37.6	37.6	51	21.1	3	7	90	0.00	29.968 
10:55	38.0	38.0	38.0	51	21.5	3	7	90	0.00	29.968 
11:00	38.5	38.5	38.5	51	22.0	2	7	45	0.00	29.952 
11:05	39.2	39.2	39.2	52	23.1	1	5	90	0.00	29.952 
11:10	39.9	39.9	39.9	51	23.3	2	6	68	0.00	29.952 
11:15	40.3	40.3	40.3	51	23.6	2	7	90	0.00	29.947 
11:20	41.1	41.1	41.1	50	23.9	2	7	248	0.00	29.947 
11:25	41.6	41.6	41.6	51	24.8	2	5	45	0.00	29.947 
11:30	42.1	42.1	42.1	51	25.3	2	9	22	0.00	29.940 
11:35	42.2	42.2	42.2	51	25.4	2	10	90	0.00	29.940 
11:40	42.6	42.6	42.6	51	25.8	3	11	45	0.00	29.940 
11:45	42.8	42.8	42.8	51	25.9	2	9	68	0.00	29.929 
11:50	42.8	42.8	42.8	51	25.9	3	6	90	0.00	29.929 
11:55	43.1	43.1	43.1	52	26.7	3	9	90	0.00	29.929 
12:00	43.3	43.3	43.3	52	26.9	2	9	90	0.00	29.915 
12:05	43.8	43.8	43.8	52	27.3	3	10	90	0.00	29.915 
12:10	44.3	44.3	44.3	52	27.8	3	8	90	0.00	29.915 
12:15	44.8	44.8	44.8	51	27.8	2	8	248	0.00	29.898 
12:20	45.2	45.2	45.2	51	28.2	2	6	90	0.00	29.898 
12:25	45.5	45.5	45.5	52	28.9	2	6	90	0.00	29.898 
12:30	45.7	45.7	45.7	52	29.1	3	8	112	0.00	29.890 
12:35	45.8	45.8	45.8	51	28.7	3	6	90	0.00	29.890 
12:40	46.1	46.1	46.1	52	29.5	2	6	90	0.00	29.890 
12:45	46.4	46.4	46.4	53	30.2	3	10	0	0.00	29.881 
12:50	46.8	46.8	46.8	52	30.1	2	9	90	0.00	29.881 
12:55	47.3	47.3	47.3	52	30.6	2	5	90	0.00	29.881 
13:00	47.6	47.6	47.6	52	30.9	2	7	90	0.00	29.874 
13:05	47.6	46.1	47.6	52	30.9	4	10	90	0.00	29.874 
13:10	48.0	48.0	48.0	53	31.7	3	10	68	0.00	29.874 
13:15	48.5	48.5	48.5	52	31.7	3	7	112	0.00	29.863 
13:20	48.8	48.8	48.8	53	32.4	2	4	90	0.00	29.863 
13:25	49.1	49.1	49.1	53	32.7	3	9	45	0.00	29.863 
13:30	49.2	49.2	49.2	53	32.8	2	5	68	0.00	29.855 
13:35	49.5	49.5	49.5	52	32.6	3	12	68	0.00	29.855 
13:40	49.8	49.8	49.8	52	32.9	3	9	248	0.00	29.855 
13:45	49.9	49.9	49.9	51	32.5	3	9	248	0.00	29.846 
13:50	50.4	50.4	50.4	52	33.4	3	7	248	0.00	29.846 
13:55	50.8	50.8	50.8	52	33.8	2	9	248	0.00	29.846 
14:00	50.8	50.8	50.8	52	33.8	3	8	90	0.00	29.838 
14:05	51.3	51.3	51.3	52	34.3	2	6	315	0.00	29.838 
14:10	51.6	51.6	51.6	52	34.6	2	9	68	0.00	29.838 
14:15	51.7	51.7	51.7	51	34.2	2	7	90	0.00	29.827 
14:20	52.0	52.0	52.0	52	34.9	2	6	45	0.00	29.827 
14:25	52.5	52.5	52.5	53	35.9	2	7	90	0.00	29.827 
14:30	52.9	52.9	52.9	51	35.3	2	9	90	0.00	29.825 
14:35	52.8	52.8	52.8	51	35.2	2	8	68	0.00	29.825 
14:40	52.6	52.6	52.6	51	35.0	2	7	248	0.00	29.825 
14:45	52.8	52.8	52.8	50	34.7	3	12	248	0.00	29.820 
14:50	52.8	52.8	52.8	51	35.2	2	9	248	0.00	29.820 
14:55	53.1	53.1	53.1	52	35.9	2	7	270	0.00	29.820 
15:00	53.2	53.2	53.2	52	36.0	2	10	248	0.00	29.809 
15:05	52.9	52.9	52.9	51	35.3	4	15	248	0.00	29.809 
15:10	53.1	53.1	53.1	51	35.5	3	13	248	0.00	29.809 
15:15	53.2	53.2	53.2	51	35.5	3	9	270	0.00	29.799 
15:20	53.5	53.5	53.5	51	35.8	2	9	90	0.00	29.799 
15:25	53.6	53.6	53.6	51	35.9	2	10	270	0.00	29.799 
15:30	53.6	53.6	53.6	51	35.9	2	7	315	0.00	29.793 
15:35	53.6	53.6	53.6	52	36.4	2	6	270	0.00	29.793 
15:40	53.9	53.9	53.9	51	36.2	3	7	248	0.00	29.793 
15:45	53.8	53.8	53.8	51	36.1	2	7	248	0.00	29.793 
15:50	53.5	53.5	53.5	52	36.3	2	10	248	0.00	29.793 
15:55	53.1	53.1	53.1	53	36.4	2	7	292	0.00	29.793 
16:00	52.5	52.5	52.5	54	36.3	2	7	68	0.00	29.794 
16:05	52.0	52.0	52.0	55	36.3	3	9	90	0.00	29.794 
16:10	52.0	52.0	52.0	55	36.3	3	10	68	0.00	29.794 
16:15	52.0	52.0	52.0	56	36.8	2	6	112	0.00	29.780 
16:20	51.7	51.7	51.7	56	36.5	2	9	90	0.00	29.780 
16:25	51.4	51.4	51.4	56	36.2	2	6	90	0.00	29.780 
16:30	51.1	51.1	51.1	57	36.4	2	6	90	0.00	29.776 
16:35	51.1	51.1	51.1	58	36.8	2	5	112	0.00	29.776 
16:40	51.1	51.1	51.1	58	36.8	2	7	90	0.00	29.776 
16:45	51.3	51.3	51.3	58	37.0	3	7	90	0.00	29.763 
16:50	51.4	51.4	51.4	59	37.6	2	6	90	0.00	29.763 
16:55	51.6	51.6	51.6	58	37.3	3	9	90	0.00	29.763 
17:00	51.6	51.6	51.6	58	37.3	3	7	90	0.00	29.751 
17:05	51.6	51.6	51.6	59	37.7	3	6	90	0.00	29.751 
17:10	51.6	51.6	51.6	61	38.6	3	6	90	0.00	29.751 
17:15	51.3	51.3	51.3	63	39.1	3	9	112	0.00	29.747 
17:20	51.1	51.1	51.1	63	38.9	3	9	90	0.00	29.747 
17:25	51.1	51.1	51.1	63	38.9	4	7	90	0.00	29.747 
17:30	51.0	51.0	51.0	64	39.3	3	10	90	0.00	29.739 
17:35	51.0	51.0	51.0	63	38.9	3	10	90	0.00	29.739 
17:40	50.8	50.8	50.8	64	39.1	2	9	90	0.00	29.739 
17:45	50.7	50.7	50.7	65	39.4	2	5	90	0.00	29.747 
17:50	50.5	50.5	50.5	65	39.2	2	11	90	0.00	29.747 
17:55	50.5	50.5	50.5	64	38.8	2	5	0	0.00	29.747 
18:00	50.7	50.7	50.7	62	38.2	3	10	90	0.00	29.744 
18:05	50.8	50.8	50.8	61	37.8	2	10	90	0.00	29.744 
18:10	50.8	50.8	50.8	61	37.8	1	5	90	0.00	29.744 
18:15	50.8	50.8	50.8	60	37.4	2	7	68	0.00	29.740 
18:20	50.8	50.8	50.8	59	37.0	1	3	68	0.00	29.740 
18:25	51.0	51.0	51.0	58	36.7	3	7	112	0.00	29.740 
18:30	51.0	51.0	51.0	57	36.3	2	5	90	0.00	29.739 
18:35	51.1	51.1	51.1	57	36.4	3	6	90	0.00	29.739 
18:40	51.0	51.0	51.0	57	36.3	1	5	112	0.00	29.739 
18:45	51.0	51.0	51.0	56	35.9	2	11	112	0.00	29.739 
18:50	50.8	50.8	50.8	57	36.1	2	7	112	0.00	29.739 
18:55	50.8	50.8	50.8	57	36.1	3	11	90	0.00	29.739 
19:00	50.7	50.7	50.7	57	36.0	2	5	112	0.00	29.730 
19:05	50.5	50.5	50.5	56	35.4	3	10	90	0.00	29.730 
19:10	50.5	50.5	50.5	57	35.8	1	4	135	0.00	29.730 
19:15	50.4	50.4	50.4	57	35.7	2	8	112	0.00	29.730 
19:20	50.5	50.5	50.5	58	36.3	2	7	248	0.00	29.730 
19:25	50.4	50.4	50.4	61	37.5	2	12	248	0.01	29.730 
19:30	49.9	49.9	49.9	62	37.4	3	11	248	0.00	29.727 
19:35	49.8	49.8	49.8	62	37.3	3	13	248	0.00	29.727 
19:40	50.1	50.1	50.1	61	37.2	5	17	248	0.00	29.727 
19:45	50.4	50.4	50.4	60	37.0	3	11	292	0.00	29.716 
19:50	50.2	50.2	50.2	60	36.9	3	14	248	0.00	29.716 
19:55	50.1	50.1	50.1	61	37.2	2	5	270	0.00	29.716 
20:00	49.9	49.9	49.9	61	37.0	1	6	225	0.00	29.700 
20:05	49.8	49.8	49.8	61	36.9	2	5	270	0.00	29.700 
20:10	49.6	49.6	49.6	61	36.7	1	4	68	0.00	29.700 
20:15	49.4	49.4	49.4	61	36.5	1	4	0	0.00	29.697 
20:20	49.4	49.4	49.4	65	38.1	3	15	270	0.00	29.697 
20:25	49.5	48.3	49.5	61	36.6	4	12	248	0.00	29.697 
20:30	49.4	49.4	49.4	62	36.9	2	10	248	0.00	29.691 
20:35	49.2	49.2	49.2	62	36.7	2	9	90	0.00	29.691 
20:40	48.9	48.9	48.9	63	36.9	3	11	90	0.00	29.691 
20:45	48.6	48.6	48.6	63	36.6	2	7	68	0.00	29.677 
20:50	48.6	48.6	48.6	64	37.0	3	12	90	0.00	29.677 
20:55	48.5	48.5	48.5	65	37.3	2	5	90	0.00	29.677 
21:00	48.3	48.3	48.3	65	37.1	3	7	90	0.00	29.666 
21:05	48.2	48.2	48.2	65	37.0	2	7	90	0.00	29.666 
21:10	48.2	48.2	48.2	65	37.0	3	7	90	0.00	29.666 
21:15	48.2	48.2	48.2	65	37.0	3	12	90	0.00	29.657 
21:20	48.2	48.2	48.2	65	37.0	3	7	90	0.00	29.657 
21:25	48.2	48.2	48.2	64	36.6	3	9	90	0.00	29.657 
21:30	48.0	46.6	48.0	65	36.8	4	9	90	0.00	29.645 
21:35	48.0	48.0	48.0	65	36.8	2	7	68	0.00	29.645 
21:40	47.9	47.9	47.9	65	36.7	3	9	90	0.00	29.645 
21:45	47.7	47.7	47.7	65	36.5	2	8	90	0.00	29.644 
21:50	47.7	47.7	47.7	65	36.5	3	7	112	0.00	29.644 
21:55	47.6	47.6	47.6	67	37.2	3	7	90	0.00	29.644 
22:00	47.3	47.3	47.3	68	37.3	2	5	90	0.00	29.636 
22:05	47.0	47.0	47.0	68	37.0	2	7	90	0.00	29.636 
22:10	47.0	47.0	47.0	68	37.0	2	5	292	0.00	29.636 
22:15	47.1	47.1	47.1	66	36.3	3	9	90	0.00	29.624 
22:20	47.3	47.3	47.3	66	36.5	2	5	90	0.00	29.624 
22:25	47.3	47.3	47.3	68	37.3	3	7	315	0.00	29.624 
22:30	47.1	47.1	47.1	70	37.8	3	12	112	0.01	29.624 
22:35	46.7	46.7	46.7	73	38.5	2	5	270	0.01	29.624 
22:40	46.2	46.2	46.2	76	39.1	2	5	90	0.02	29.624 
22:45	46.0	46.0	46.0	77	39.2	2	5	90	0.01	29.612 
22:50	45.7	45.7	45.7	78	39.2	2	6	90	0.01	29.612 
22:55	45.5	45.5	45.5	79	39.4	2	9	90	0.00	29.612 
23:00	45.4	45.4	45.4	80	39.6	3	6	90	0.01	29.610 
23:05	45.2	45.2	45.2	81	39.7	2	6	90	0.00	29.610 
23:10	45.1	45.1	45.1	81	39.6	3	12	112	0.01	29.610 
23:15	44.9	44.9	44.9	82	39.7	3	19	45	0.00	29.595 
23:20	44.9	43.0	44.9	83	40.1	4	11	90	0.00	29.595 
23:25	44.8	42.9	44.8	84	40.3	4	12	90	0.00	29.595 
23:30	44.6	44.6	44.6	85	40.4	3	7	90	0.00	29.584 
23:35	44.5	44.5	44.5	86	40.6	3	9	68	0.00	29.584 
23:40	44.3	42.3	44.3	86	40.4	4	12	68	0.00	29.584 
23:45	44.3	42.3	44.3	86	40.4	4	13	90	0.00	29.577 
23:50	44.3	42.3	44.3	86	40.4	4	12	90	0.00	29.577 
23:55	44.2	42.2	44.2	85	40.0	4	16	90	0.00	29.577 

CoCoRaHS
IN-AL-39
A2 Web Hosting
Creative Commons License
GoDaddy
search engine by freefind advanced

loaded 2018-11-13 17:34:20 • last modified 2010-11-18 10:43:29
Privacy PolicyDisclaimer
• wx.awcolley.com is powered by PmWiki v.2002016 •
• all content (unless otherwise noted) © 2018 A W Colley